createdAt,value
2023-03-27T00:00:13.240Z,2.68
2023-03-27T00:02:41.798Z,2.70
2023-03-27T00:05:10.300Z,2.73
2023-03-27T00:07:41.535Z,2.77
2023-03-27T00:10:10.630Z,2.81
2023-03-27T00:12:39.151Z,2.85
2023-03-27T00:15:08.502Z,2.84
2023-03-27T00:17:37.506Z,2.82
2023-03-27T00:20:07.032Z,2.78
2023-03-27T00:22:36.014Z,2.73
2023-03-27T00:25:06.397Z,2.68
2023-03-27T00:27:34.498Z,2.61
2023-03-27T00:30:05.143Z,2.58
2023-03-27T00:32:33.775Z,2.55
2023-03-27T00:35:01.880Z,2.52
2023-03-27T00:37:30.051Z,2.47
2023-03-27T00:39:58.117Z,2.43
2023-03-27T00:42:27.616Z,2.41
2023-03-27T00:44:55.725Z,2.37
2023-03-27T00:47:31.657Z,2.36
2023-03-27T00:50:01.204Z,2.31
2023-03-27T00:52:31.500Z,2.29
2023-03-27T00:55:02.115Z,2.28
2023-03-27T00:57:31.990Z,2.23
2023-03-27T01:00:01.852Z,2.22
2023-03-27T01:02:30.038Z,2.21
2023-03-27T01:04:58.400Z,2.18
2023-03-27T01:07:26.502Z,2.19
2023-03-27T01:09:54.547Z,2.17
2023-03-27T01:12:36.218Z,2.17
2023-03-27T01:15:25.295Z,2.15
2023-03-27T01:18:04.275Z,2.15
2023-03-27T01:21:03.874Z,2.13
2023-03-27T01:24:21.021Z,2.09
2023-03-27T01:27:16.279Z,2.03
2023-03-27T01:29:55.778Z,1.99
2023-03-27T01:32:58.530Z,1.98
2023-03-27T01:36:01.889Z,1.99
2023-03-27T01:38:58.869Z,1.99
2023-03-27T01:41:30.439Z,1.99
2023-03-27T01:44:00.754Z,2.00
2023-03-27T01:46:35.458Z,2.01
2023-03-27T01:49:07.379Z,1.99
2023-03-27T01:51:37.333Z,1.99
2023-03-27T01:54:12.417Z,2.00
2023-03-27T01:56:51.621Z,2.01
2023-03-27T01:59:21.645Z,1.99
2023-03-27T02:01:52.889Z,1.97
2023-03-27T02:04:27.309Z,1.96
2023-03-27T02:06:59.070Z,1.95
2023-03-27T02:09:33.328Z,1.92
2023-03-27T02:12:05.948Z,1.89
2023-03-27T02:14:37.015Z,1.89
2023-03-27T02:17:10.162Z,1.87
2023-03-27T02:19:41.287Z,1.85
2023-03-27T02:22:09.725Z,1.84
2023-03-27T02:24:38.762Z,1.82
2023-03-27T02:27:12.863Z,1.83
2023-03-27T02:29:49.196Z,1.81
2023-03-27T02:32:28.016Z,1.80
2023-03-27T02:35:08.229Z,1.80
2023-03-27T02:37:44.425Z,1.80
2023-03-27T02:40:19.274Z,1.82
2023-03-27T02:42:59.430Z,1.83
2023-03-27T02:45:31.660Z,1.85
2023-03-27T02:48:03.181Z,1.83
2023-03-27T02:50:34.946Z,1.82
2023-03-27T02:53:04.387Z,1.81
2023-03-27T02:55:35.443Z,1.80
2023-03-27T02:58:08.419Z,1.80
2023-03-27T03:00:40.252Z,1.79
2023-03-27T03:03:11.445Z,1.77
2023-03-27T03:05:39.541Z,1.77
2023-03-27T03:08:10.205Z,1.76
2023-03-27T03:10:43.625Z,1.77
2023-03-27T03:13:13.101Z,1.75
2023-03-27T03:15:41.245Z,1.74
2023-03-27T03:18:09.295Z,1.75
2023-03-27T03:20:38.110Z,1.72
2023-03-27T03:23:06.684Z,1.71
2023-03-27T03:25:34.845Z,1.69
2023-03-27T03:28:08.003Z,1.69
2023-03-27T03:30:39.049Z,1.65
2023-03-27T03:33:07.196Z,1.66
2023-03-27T03:35:35.871Z,1.66
2023-03-27T03:38:03.991Z,1.64
2023-03-27T03:40:32.074Z,1.62
2023-03-27T03:43:00.336Z,1.59
2023-03-27T03:45:28.414Z,1.57
2023-03-27T03:47:57.867Z,1.54
2023-03-27T03:50:26.007Z,1.54
2023-03-27T03:52:54.049Z,1.53
2023-03-27T03:55:22.130Z,1.52
2023-03-27T03:57:50.218Z,1.52
2023-03-27T04:00:18.836Z,1.53
2023-03-27T04:02:50.305Z,1.52
2023-03-27T04:05:19.986Z,1.52
2023-03-27T04:07:49.770Z,1.55
2023-03-27T04:10:18.766Z,1.56
2023-03-27T04:12:50.728Z,1.56
2023-03-27T04:15:19.240Z,1.57
2023-03-27T04:17:48.425Z,1.57
2023-03-27T04:20:17.296Z,1.55
2023-03-27T04:22:48.082Z,1.53
2023-03-27T04:25:17.798Z,1.51
2023-03-27T04:27:46.100Z,1.48
2023-03-27T04:30:15.838Z,1.46
2023-03-27T04:32:44.084Z,1.43
2023-03-27T04:35:12.214Z,1.42
2023-03-27T04:37:41.753Z,1.41
2023-03-27T04:40:13.301Z,1.40
2023-03-27T04:42:43.675Z,1.39
2023-03-27T04:45:13.865Z,1.37
2023-03-27T04:47:42.690Z,1.38
2023-03-27T04:50:12.864Z,1.37
2023-03-27T04:52:40.921Z,1.37
2023-03-27T04:55:11.513Z,1.37
2023-03-27T04:57:41.733Z,1.38
2023-03-27T05:00:17.043Z,1.39
2023-03-27T05:02:45.233Z,1.41
2023-03-27T05:05:13.993Z,1.42
2023-03-27T05:07:46.143Z,1.42
2023-03-27T05:10:15.840Z,1.42
2023-03-27T05:12:46.289Z,1.44
2023-03-27T05:15:14.917Z,1.45
2023-03-27T05:17:44.043Z,1.48
2023-03-27T05:20:15.022Z,1.47
2023-03-27T05:22:43.874Z,1.45
2023-03-27T05:25:13.727Z,1.45
2023-03-27T05:27:46.891Z,1.46
2023-03-27T05:30:15.990Z,1.45
2023-03-27T05:32:48.217Z,1.46
2023-03-27T05:35:18.124Z,1.48
2023-03-27T05:37:48.749Z,1.53
2023-03-27T05:40:20.654Z,1.56
2023-03-27T05:42:51.207Z,1.60
2023-03-27T05:45:19.950Z,1.66
2023-03-27T05:47:48.500Z,1.71
2023-03-27T05:50:18.068Z,1.75
2023-03-27T05:52:46.423Z,1.82
2023-03-27T05:55:15.811Z,1.88
2023-03-27T05:57:43.928Z,1.92
2023-03-27T06:00:16.365Z,2.00
2023-03-27T06:02:45.337Z,2.10
2023-03-27T06:05:15.239Z,2.20
2023-03-27T06:07:43.755Z,2.33
2023-03-27T06:10:14.416Z,2.49
2023-03-27T06:12:43.643Z,2.61
2023-03-27T06:15:14.580Z,2.69
2023-03-27T06:17:44.475Z,2.79
2023-03-27T06:20:15.631Z,3.00
2023-03-27T06:22:46.103Z,3.26
2023-03-27T06:25:14.611Z,3.41
2023-03-27T06:27:43.256Z,3.40
2023-03-27T06:30:13.749Z,3.22
2023-03-27T06:32:45.493Z,3.10
2023-03-27T06:35:14.980Z,2.99
2023-03-27T06:37:45.937Z,2.90
2023-03-27T06:40:22.887Z,2.84
2023-03-27T06:42:53.187Z,2.88
2023-03-27T06:45:23.479Z,2.99
2023-03-27T06:47:55.273Z,3.10
2023-03-27T06:50:25.213Z,3.30
2023-03-27T06:52:53.511Z,3.34
2023-03-27T06:55:23.136Z,3.45
2023-03-27T06:57:52.881Z,3.54
2023-03-27T07:00:25.829Z,3.63
2023-03-27T07:02:56.533Z,3.67
2023-03-27T07:05:25.163Z,3.78
2023-03-27T07:07:54.095Z,3.87
2023-03-27T07:10:22.942Z,3.90
2023-03-27T07:12:52.714Z,3.96
2023-03-27T07:15:23.840Z,4.11
2023-03-27T07:17:56.784Z,4.27
2023-03-27T07:20:27.801Z,4.38
2023-03-27T07:25:38.042Z,4.57
2023-03-27T07:28:07.018Z,4.76
2023-03-27T07:30:35.503Z,4.89
2023-03-27T07:33:04.341Z,5.14
2023-03-27T07:35:32.519Z,5.46
2023-03-27T07:38:01.078Z,5.56
2023-03-27T07:40:38.845Z,5.77
2023-03-27T07:43:09.693Z,6.11
2023-03-27T07:45:37.948Z,6.46
2023-03-27T07:48:07.071Z,6.65
2023-03-27T07:50:35.951Z,6.73
2023-03-27T07:53:04.481Z,6.77
2023-03-27T07:55:32.564Z,6.80
2023-03-27T07:58:02.725Z,6.69
2023-03-27T08:00:35.296Z,6.63
2023-03-27T08:03:08.221Z,6.61
2023-03-27T08:05:37.067Z,6.77
2023-03-27T08:08:05.939Z,6.89
2023-03-27T08:10:34.113Z,7.04
2023-03-27T08:13:02.361Z,7.15
2023-03-27T08:15:31.856Z,7.27
2023-03-27T08:18:00.327Z,7.41
2023-03-27T08:20:30.269Z,7.40
2023-03-27T08:22:58.480Z,7.42
2023-03-27T08:25:27.398Z,7.60
2023-03-27T08:27:55.526Z,7.70
2023-03-27T08:30:23.957Z,7.78
2023-03-27T08:32:53.549Z,7.89
2023-03-27T08:35:21.920Z,7.87
2023-03-27T08:37:49.992Z,7.82
2023-03-27T08:40:20.466Z,7.71
2023-03-27T08:42:53.224Z,7.77
2023-03-27T08:45:25.722Z,7.74
2023-03-27T08:47:59.917Z,7.71
2023-03-27T08:50:34.610Z,7.68
2023-03-27T08:53:04.569Z,7.84
2023-03-27T08:55:40.270Z,8.16
2023-03-27T08:58:17.440Z,8.32
2023-03-27T09:00:47.653Z,8.39
2023-03-27T09:03:22.808Z,8.51
2023-03-27T09:05:55.168Z,8.45
2023-03-27T09:08:34.770Z,8.36
2023-03-27T09:11:06.040Z,8.25
2023-03-27T09:13:38.694Z,8.22
2023-03-27T09:16:12.405Z,8.13
2023-03-27T09:18:45.412Z,7.94
2023-03-27T09:21:17.815Z,7.81
2023-03-27T09:23:47.315Z,7.78
2023-03-27T09:26:19.436Z,7.89
2023-03-27T09:28:51.239Z,7.94
2023-03-27T09:31:26.432Z,8.03
2023-03-27T09:33:56.438Z,7.79
2023-03-27T09:36:24.906Z,7.62
2023-03-27T09:38:54.445Z,7.51
2023-03-27T09:41:25.736Z,7.37
2023-03-27T09:43:59.866Z,7.27
2023-03-27T09:46:28.339Z,7.07
2023-03-27T09:49:00.979Z,6.96
2023-03-27T09:51:44.072Z,6.88
2023-03-27T09:54:14.294Z,6.84
2023-03-27T09:56:46.390Z,6.74
2023-03-27T09:59:26.057Z,6.57
2023-03-27T10:01:57.293Z,6.37
2023-03-27T10:04:29.167Z,6.29
2023-03-27T10:07:02.503Z,6.15
2023-03-27T10:09:32.255Z,5.94
2023-03-27T10:12:09.567Z,5.74
2023-03-27T10:14:41.375Z,5.31
2023-03-27T10:17:16.186Z,4.89
2023-03-27T10:19:46.434Z,4.54
2023-03-27T10:22:24.768Z,4.52
2023-03-27T10:24:54.057Z,5.08
2023-03-27T10:27:25.768Z,5.78
2023-03-27T10:29:53.968Z,6.30
2023-03-27T10:32:42.197Z,6.71
2023-03-27T10:35:25.244Z,6.91
2023-03-27T10:37:53.656Z,7.12
2023-03-27T10:40:25.265Z,7.61
2023-03-27T10:42:56.474Z,8.13
2023-03-27T10:45:25.111Z,8.66
2023-03-27T10:47:55.839Z,9.06
2023-03-27T10:50:29.341Z,9.29
2023-03-27T10:53:03.711Z,9.13
2023-03-27T10:55:41.554Z,9.05
2023-03-27T10:58:27.137Z,9.08
2023-03-27T11:01:00.283Z,9.00
2023-03-27T11:03:34.682Z,8.97
2023-03-27T11:06:07.769Z,9.14
2023-03-27T11:08:44.913Z,9.38
2023-03-27T11:11:17.311Z,9.41
2023-03-27T11:13:46.965Z,9.60
2023-03-27T11:16:19.564Z,9.48
2023-03-27T11:18:51.109Z,9.47
2023-03-27T11:21:24.575Z,9.35
2023-03-27T11:23:57.478Z,9.34
2023-03-27T11:26:28.541Z,9.46
2023-03-27T11:28:59.347Z,9.58
2023-03-27T11:31:38.072Z,9.49
2023-03-27T11:34:08.931Z,9.34
2023-03-27T11:36:49.482Z,9.34
2023-03-27T11:39:24.713Z,9.55
2023-03-27T11:41:55.304Z,10.03
2023-03-27T11:44:24.794Z,10.45
2023-03-27T11:47:07.406Z,10.68
2023-03-27T11:49:55.581Z,10.79
2023-03-27T11:52:33.863Z,10.87
2023-03-27T11:55:10.626Z,10.99
2023-03-27T11:57:48.916Z,10.91
2023-03-27T12:00:25.220Z,10.72
2023-03-27T12:03:19.492Z,10.39
2023-03-27T12:06:00.225Z,10.12
2023-03-27T12:08:37.060Z,9.77
2023-03-27T12:11:07.150Z,9.50
2023-03-27T12:14:05.507Z,9.30
2023-03-27T12:16:52.345Z,9.08
2023-03-27T12:19:38.506Z,8.94
2023-03-27T12:25:00.833Z,8.89
2023-03-27T12:27:47.408Z,8.95
2023-03-27T12:30:25.173Z,8.96
2023-03-27T12:33:16.826Z,8.98
2023-03-27T12:35:47.926Z,9.03
2023-03-27T12:38:22.776Z,9.03
2023-03-27T12:41:03.946Z,9.02
2023-03-27T12:43:33.847Z,8.85
2023-03-27T12:46:13.312Z,8.79
2023-03-27T12:48:52.744Z,8.74
2023-03-27T12:51:21.826Z,8.43
2023-03-27T12:53:56.417Z,8.11
2023-03-27T12:56:38.240Z,7.80
2023-03-27T12:59:30.233Z,7.84
2023-03-27T13:02:31.987Z,7.79
2023-03-27T13:05:37.570Z,7.74
2023-03-27T13:08:23.028Z,7.45
2023-03-27T13:10:58.819Z,7.11
2023-03-27T13:13:59.575Z,6.87
2023-03-27T13:16:43.401Z,6.80
2023-03-27T13:19:27.509Z,7.19
2023-03-27T13:22:09.061Z,7.49
2023-03-27T13:24:52.345Z,7.66
2023-03-27T13:27:33.417Z,7.92
2023-03-27T13:30:02.928Z,8.42
2023-03-27T13:32:33.568Z,8.83
2023-03-27T13:35:05.099Z,9.18
2023-03-27T13:37:53.702Z,9.54
2023-03-27T13:40:29.489Z,9.72
2023-03-27T13:43:16.681Z,9.69
2023-03-27T13:45:49.827Z,9.55
2023-03-27T13:49:05.885Z,9.41
2023-03-27T13:51:58.782Z,9.42
2023-03-27T13:54:48.518Z,9.32
2023-03-27T13:57:29.803Z,9.06
2023-03-27T14:00:31.912Z,8.71
2023-03-27T14:03:25.524Z,8.37
2023-03-27T14:06:26.728Z,8.05
2023-03-27T14:09:03.388Z,7.78
2023-03-27T14:11:39.894Z,7.52
2023-03-27T14:14:28.115Z,7.32
2023-03-27T14:17:21.026Z,7.23
2023-03-27T14:20:13.495Z,7.32
2023-03-27T14:22:47.593Z,7.56
2023-03-27T14:25:18.016Z,7.66
2023-03-27T14:27:50.567Z,7.76
2023-03-27T14:30:20.440Z,7.88
2023-03-27T14:32:50.063Z,8.17
2023-03-27T14:35:29.436Z,8.43
2023-03-27T14:38:00.145Z,8.49
2023-03-27T14:40:30.847Z,8.51
2023-03-27T14:43:00.649Z,8.52
2023-03-27T14:45:30.350Z,8.57
2023-03-27T14:48:01.439Z,8.73
2023-03-27T14:50:34.338Z,8.82
2023-03-27T14:53:08.844Z,8.56
2023-03-27T14:55:39.825Z,8.47
2023-03-27T14:58:13.167Z,8.55
2023-03-27T15:00:42.337Z,8.46
2023-03-27T15:03:14.644Z,8.54
2023-03-27T15:05:58.578Z,8.57
2023-03-27T15:08:28.718Z,8.46
2023-03-27T15:10:56.939Z,8.30
2023-03-27T15:13:27.010Z,8.09
2023-03-27T15:15:58.190Z,7.82
2023-03-27T15:18:31.392Z,7.63
2023-03-27T15:21:04.833Z,7.48
2023-03-27T15:23:36.767Z,7.29
2023-03-27T15:26:08.726Z,7.12
2023-03-27T15:28:41.497Z,7.10
2023-03-27T15:31:09.991Z,7.14
2023-03-27T15:33:41.314Z,7.11
2023-03-27T15:36:26.605Z,7.16
2023-03-27T15:38:56.000Z,7.40
2023-03-27T15:41:43.943Z,7.51
2023-03-27T15:44:17.313Z,7.47
2023-03-27T15:46:48.720Z,7.35
2023-03-27T15:49:28.945Z,7.17
2023-03-27T15:51:59.546Z,7.03
2023-03-27T15:54:31.426Z,6.89
2023-03-27T15:57:10.169Z,6.79
2023-03-27T15:59:52.121Z,6.72
2023-03-27T16:02:22.746Z,6.63
2023-03-27T16:04:53.604Z,6.41
2023-03-27T16:07:26.738Z,6.35
2023-03-27T16:09:57.021Z,6.43
2023-03-27T16:12:30.879Z,6.54
2023-03-27T16:15:00.366Z,6.62
2023-03-27T16:17:34.256Z,6.61
2023-03-27T16:20:07.443Z,6.58
2023-03-27T16:22:38.166Z,6.67
2023-03-27T16:25:09.017Z,6.68
2023-03-27T16:27:38.875Z,6.63
2023-03-27T16:30:09.660Z,6.52
2023-03-27T16:32:37.886Z,6.35
2023-03-27T16:35:07.443Z,6.08
2023-03-27T16:37:36.878Z,5.90
2023-03-27T16:40:05.523Z,5.77
2023-03-27T16:42:33.592Z,5.64
2023-03-27T16:45:01.901Z,5.47
2023-03-27T16:47:29.968Z,5.26
2023-03-27T16:50:10.890Z,4.98
2023-03-27T16:52:40.968Z,4.75
2023-03-27T16:55:11.453Z,4.60
2023-03-27T16:57:39.499Z,4.46
2023-03-27T17:00:09.507Z,4.29
2023-03-27T17:02:37.899Z,4.21
2023-03-27T17:05:07.877Z,4.17
2023-03-27T17:07:36.408Z,4.11
2023-03-27T17:10:06.663Z,4.02
2023-03-27T17:12:35.210Z,3.95
2023-03-27T17:15:03.661Z,3.75
2023-03-27T17:17:31.971Z,3.46
2023-03-27T17:20:00.723Z,3.27
2023-03-27T17:22:29.965Z,3.15
2023-03-27T17:25:01.197Z,3.07
2023-03-27T17:27:30.726Z,3.03
2023-03-27T17:29:58.928Z,3.01
2023-03-27T17:32:27.267Z,2.93
2023-03-27T17:34:55.957Z,2.89
2023-03-27T17:37:25.923Z,2.91
2023-03-27T17:39:54.090Z,2.83
2023-03-27T17:42:22.286Z,2.67
2023-03-27T17:44:51.732Z,2.60
2023-03-27T17:47:19.843Z,2.51
2023-03-27T17:49:47.937Z,2.44
2023-03-27T17:52:16.017Z,2.40
2023-03-27T17:54:44.120Z,2.42
2023-03-27T17:57:12.384Z,2.45
2023-03-27T17:59:40.553Z,2.46
2023-03-27T18:02:16.589Z,2.52
2023-03-27T18:04:44.944Z,2.60
2023-03-27T18:07:12.995Z,2.65
2023-03-27T18:09:41.635Z,2.70
2023-03-27T18:12:09.821Z,2.76
2023-03-27T18:14:38.148Z,2.81
2023-03-27T18:17:06.323Z,2.84
2023-03-27T18:19:35.745Z,2.89
2023-03-27T18:22:04.010Z,2.94
2023-03-27T18:24:32.283Z,2.99
2023-03-27T18:27:00.404Z,3.05
2023-03-27T18:29:30.392Z,3.08
2023-03-27T18:31:58.604Z,3.11
2023-03-27T18:34:27.182Z,3.11
2023-03-27T18:36:56.839Z,3.08
2023-03-27T18:39:24.943Z,3.06
2023-03-27T18:41:54.854Z,3.07
2023-03-27T18:44:22.929Z,3.07
2023-03-27T18:46:51.133Z,3.07
2023-03-27T18:49:25.036Z,3.09
2023-03-27T18:51:53.543Z,3.11
2023-03-27T18:54:23.288Z,3.11
2023-03-27T18:56:52.139Z,3.12
2023-03-27T18:59:20.765Z,3.12
2023-03-27T19:01:48.909Z,3.15
2023-03-27T19:04:17.315Z,3.13
2023-03-27T19:06:46.618Z,3.13
2023-03-27T19:09:15.227Z,3.13
2023-03-27T19:11:44.860Z,3.12
2023-03-27T19:14:12.966Z,3.14
2023-03-27T19:16:41.094Z,3.16
2023-03-27T19:19:09.249Z,3.18
2023-03-27T19:21:38.281Z,3.19
2023-03-27T19:24:07.926Z,3.19
2023-03-27T19:26:37.294Z,3.19
2023-03-27T19:29:07.030Z,3.22
2023-03-27T19:31:35.447Z,3.23
2023-03-27T19:34:03.858Z,3.23
2023-03-27T19:36:32.644Z,3.23
2023-03-27T19:39:01.168Z,3.23
2023-03-27T19:41:29.223Z,3.23
2023-03-27T19:43:59.604Z,3.27
2023-03-27T19:46:30.110Z,3.31
2023-03-27T19:48:58.209Z,3.32
2023-03-27T19:51:26.646Z,3.31
2023-03-27T19:53:55.501Z,3.32
2023-03-27T19:56:23.780Z,3.32
2023-03-27T19:58:52.440Z,3.30
2023-03-27T20:01:21.520Z,3.27
2023-03-27T20:03:51.120Z,3.25
2023-03-27T20:06:20.481Z,3.23
2023-03-27T20:08:48.762Z,3.22
2023-03-27T20:11:16.929Z,3.18
2023-03-27T20:13:55.236Z,3.17
2023-03-27T20:16:26.061Z,3.16
2023-03-27T20:19:03.443Z,3.13
2023-03-27T20:21:33.759Z,3.12
2023-03-27T20:24:01.870Z,3.13
2023-03-27T20:26:32.515Z,3.10
2023-03-27T20:29:00.633Z,3.10
2023-03-27T20:31:28.756Z,3.09
2023-03-27T20:33:58.234Z,3.09
2023-03-27T20:36:26.390Z,3.09
2023-03-27T20:38:56.417Z,3.09
2023-03-27T20:41:27.183Z,3.09
2023-03-27T20:43:55.328Z,3.13
2023-03-27T20:46:23.489Z,3.13
2023-03-27T20:48:54.945Z,3.16
2023-03-27T20:51:25.174Z,3.17
2023-03-27T20:53:58.167Z,3.18
2023-03-27T20:56:26.248Z,3.20
2023-03-27T20:58:54.349Z,3.19
2023-03-27T21:01:27.623Z,3.24
2023-03-27T21:03:58.547Z,3.27
2023-03-27T21:06:28.175Z,3.27
2023-03-27T21:08:56.237Z,3.30
2023-03-27T21:11:24.374Z,3.34
2023-03-27T21:13:52.459Z,3.12
2023-03-27T21:16:20.579Z,2.68
2023-03-27T21:18:48.704Z,2.26
2023-03-27T21:21:16.850Z,1.92
2023-03-27T21:23:48.067Z,1.67
2023-03-27T21:26:16.440Z,1.57
2023-03-27T21:28:44.554Z,1.47
2023-03-27T21:31:12.859Z,1.35
2023-03-27T21:33:41.033Z,1.34
2023-03-27T21:36:10.641Z,1.36
2023-03-27T21:38:38.790Z,1.38
2023-03-27T21:41:08.846Z,1.36
2023-03-27T21:43:36.935Z,1.36
2023-03-27T21:46:05.640Z,1.31
2023-03-27T21:48:33.810Z,1.32
2023-03-27T21:51:02.155Z,1.34
2023-03-27T21:53:30.568Z,1.35
2023-03-27T21:55:59.121Z,1.36
2023-03-27T21:58:28.828Z,1.36
2023-03-27T22:00:58.137Z,1.34
2023-03-27T22:03:26.838Z,1.30
2023-03-27T22:06:10.326Z,1.29
2023-03-27T22:08:39.839Z,1.28
2023-03-27T22:11:08.141Z,1.26
2023-03-27T22:13:38.183Z,1.25
2023-03-27T22:16:09.719Z,1.27
2023-03-27T22:18:37.936Z,1.28
2023-03-27T22:21:17.120Z,1.28
2023-03-27T22:23:45.886Z,1.26
2023-03-27T22:26:14.031Z,1.25
2023-03-27T22:28:43.588Z,1.23
2023-03-27T22:31:11.770Z,1.21
2023-03-27T22:33:40.127Z,1.20
2023-03-27T22:36:11.727Z,1.20
2023-03-27T22:38:40.702Z,1.17
2023-03-27T22:41:10.404Z,1.14
2023-03-27T22:43:38.516Z,1.14
2023-03-27T22:46:09.457Z,1.10
2023-03-27T22:48:37.890Z,1.10
2023-03-27T22:51:06.863Z,1.10
2023-03-27T22:53:35.514Z,1.10
2023-03-27T22:56:04.283Z,1.09
2023-03-27T22:58:32.551Z,1.06
2023-03-27T23:01:00.663Z,1.07
2023-03-27T23:03:30.329Z,1.06
2023-03-27T23:05:58.763Z,1.04
2023-03-27T23:08:28.509Z,1.04
2023-03-27T23:10:57.813Z,1.03
2023-03-27T23:13:26.422Z,1.00
2023-03-27T23:15:54.632Z,1.00
2023-03-27T23:18:24.611Z,0.98
2023-03-27T23:20:58.317Z,0.97
2023-03-27T23:23:27.193Z,0.96
2023-03-27T23:25:55.881Z,0.92
2023-03-27T23:28:24.377Z,0.92
2023-03-27T23:30:55.755Z,0.91
2023-03-27T23:33:25.323Z,0.91
2023-03-27T23:35:54.300Z,0.88
2023-03-27T23:38:23.810Z,0.86
2023-03-27T23:40:56.800Z,0.86
2023-03-27T23:43:26.080Z,0.83
2023-03-27T23:45:55.527Z,0.83
2023-03-27T23:48:23.919Z,0.83
2023-03-27T23:50:53.213Z,0.80
2023-03-27T23:53:25.776Z,0.77
2023-03-27T23:55:54.241Z,0.75
2023-03-27T23:58:22.345Z,0.74
